James, Texas
Current Conditions -  °F | °C
As of 2:35 AM on Friday 21 Nov 2014 (Local Time) from KOCH Reporting Station
Overcast Overcast  
Wind Chill: 55°   Ceiling: 1900
Heat Index: 55°   Visibility: 9mi
Dew Point: 54°   Wind: 7mph
Humidity: 94%   Direction: 140°SE
Pressure: 30.14"   Gusts: NA
Location:  31.7586°N, 94.1975°W
Report Text: KOCH 210835Z AUTO 14006KT 9SM BKN019 OVC043 13/12 A3014 RMK AO1 P0003
Loading
Personal Weather Stations






























Interactive Weather Map New forecast layout! Learn more

10-Day Weather Forecast

Advertisements
Track Severe Weather on mobile